createdAt,value
2016-09-30T00:00:07.914Z,15.29
2016-09-30T00:01:07.512Z,15.26
2016-09-30T00:02:08.028Z,15.21
2016-09-30T00:03:07.625Z,15.14
2016-09-30T00:04:07.101Z,15.12
2016-09-30T00:05:07.661Z,15.13
2016-09-30T00:06:07.133Z,15.15
2016-09-30T00:07:07.665Z,15.16
2016-09-30T00:08:07.187Z,15.21
2016-09-30T00:09:07.784Z,15.17
2016-09-30T00:10:07.361Z,15.23
2016-09-30T00:11:07.853Z,15.20
2016-09-30T00:12:07.380Z,15.12
2016-09-30T00:13:07.918Z,15.09
2016-09-30T00:14:07.503Z,15.07
2016-09-30T00:15:08.051Z,15.08
2016-09-30T00:16:07.630Z,15.10
2016-09-30T00:17:07.215Z,15.06
2016-09-30T00:18:07.773Z,15.02
2016-09-30T00:19:07.287Z,14.97
2016-09-30T00:20:07.858Z,14.96
2016-09-30T00:21:07.452Z,14.94
2016-09-30T00:22:08.007Z,14.96
2016-09-30T00:23:07.580Z,14.90
2016-09-30T00:24:07.172Z,14.92
2016-09-30T00:25:07.696Z,14.98
2016-09-30T00:26:07.222Z,14.98
2016-09-30T00:27:07.781Z,14.92
2016-09-30T00:28:07.354Z,14.86
2016-09-30T00:29:07.878Z,14.88
2016-09-30T00:30:07.735Z,14.89
2016-09-30T00:31:07.332Z,14.88
2016-09-30T00:32:07.787Z,14.85
2016-09-30T00:33:07.266Z,14.79
2016-09-30T00:34:07.711Z,14.80
2016-09-30T00:35:07.215Z,14.75
2016-09-30T00:36:07.816Z,14.78
2016-09-30T00:37:07.389Z,14.79
2016-09-30T00:38:07.952Z,14.76
2016-09-30T00:39:07.455Z,14.79
2016-09-30T00:40:08.026Z,14.73
2016-09-30T00:41:07.579Z,14.76
2016-09-30T00:42:07.194Z,14.84
2016-09-30T00:43:07.835Z,14.80
2016-09-30T00:44:07.379Z,14.79
2016-09-30T00:45:07.905Z,14.77
2016-09-30T00:46:07.448Z,14.85
2016-09-30T00:47:08.057Z,14.88
2016-09-30T00:48:07.621Z,14.99
2016-09-30T00:49:07.069Z,15.01
2016-09-30T00:50:07.686Z,15.01
2016-09-30T00:51:07.214Z,15.02
2016-09-30T00:52:07.722Z,14.95
2016-09-30T00:53:07.296Z,14.96
2016-09-30T00:54:07.800Z,15.03
2016-09-30T00:55:07.332Z,15.08
2016-09-30T00:56:07.877Z,15.07
2016-09-30T00:57:07.362Z,15.09
2016-09-30T00:58:07.881Z,15.12
2016-09-30T00:59:07.348Z,15.04
2016-09-30T01:00:07.907Z,15.24
2016-09-30T01:01:07.514Z,15.25
2016-09-30T01:02:07.983Z,15.42
2016-09-30T01:03:07.979Z,15.43
2016-09-30T01:04:07.532Z,15.40
2016-09-30T01:05:08.125Z,15.41
2016-09-30T01:06:07.361Z,15.52
2016-09-30T01:07:08.056Z,15.56
2016-09-30T01:08:07.752Z,15.60
2016-09-30T01:09:07.555Z,15.73
2016-09-30T01:10:08.001Z,15.64
2016-09-30T01:11:07.886Z,15.67
2016-09-30T01:12:07.578Z,15.73
2016-09-30T01:13:07.050Z,15.78
2016-09-30T01:14:07.765Z,15.85
2016-09-30T01:15:07.279Z,15.86
2016-09-30T01:16:07.016Z,15.80
2016-09-30T01:17:07.368Z,15.82
2016-09-30T01:18:07.879Z,15.78
2016-09-30T01:19:07.451Z,15.73
2016-09-30T01:20:08.003Z,15.68
2016-09-30T01:21:07.918Z,15.67
2016-09-30T01:22:08.009Z,15.60
2016-09-30T01:23:07.176Z,15.57
2016-09-30T01:24:07.523Z,15.55
2016-09-30T01:25:07.337Z,15.62
2016-09-30T01:26:07.985Z,15.50
2016-09-30T01:27:07.503Z,15.53
2016-09-30T01:28:08.068Z,15.49
2016-09-30T01:29:07.566Z,15.53
2016-09-30T01:30:08.143Z,15.48
2016-09-30T01:31:07.762Z,15.54
2016-09-30T01:32:07.517Z,15.52
2016-09-30T01:33:08.086Z,15.50
2016-09-30T01:34:07.825Z,15.55
2016-09-30T01:35:07.329Z,15.61
2016-09-30T01:36:08.019Z,15.60
2016-09-30T01:37:07.603Z,15.55
2016-09-30T01:38:07.029Z,15.47
2016-09-30T01:39:07.545Z,15.46
2016-09-30T01:40:08.116Z,15.56
2016-09-30T01:41:07.698Z,15.56
2016-09-30T01:42:07.235Z,15.52
2016-09-30T01:43:07.838Z,15.49
2016-09-30T01:44:07.295Z,15.53
2016-09-30T01:45:07.834Z,15.53
2016-09-30T01:46:07.457Z,15.51
2016-09-30T01:47:08.226Z,15.46
2016-09-30T01:48:08.096Z,15.47
2016-09-30T01:49:07.577Z,15.45
2016-09-30T01:50:07.195Z,15.42
2016-09-30T01:51:07.762Z,15.39
2016-09-30T01:52:07.223Z,15.41
2016-09-30T01:53:07.795Z,15.41
2016-09-30T01:54:07.470Z,15.42
2016-09-30T01:55:07.958Z,15.33
2016-09-30T01:56:07.604Z,15.29
2016-09-30T01:57:07.103Z,15.33
2016-09-30T01:58:07.702Z,15.31
2016-09-30T01:59:07.204Z,15.30
2016-09-30T02:00:07.754Z,15.24
2016-09-30T02:01:07.569Z,15.24
2016-09-30T02:02:08.153Z,15.21
2016-09-30T02:03:07.716Z,15.20
2016-09-30T02:04:07.226Z,15.16
2016-09-30T02:05:07.678Z,15.13
2016-09-30T02:06:07.482Z,15.19
2016-09-30T02:07:08.046Z,15.19
2016-09-30T02:08:07.598Z,15.12
2016-09-30T02:09:07.095Z,15.20
2016-09-30T02:10:07.690Z,15.22
2016-09-30T02:11:07.226Z,15.25
2016-09-30T02:12:07.753Z,15.29
2016-09-30T02:13:07.296Z,15.27
2016-09-30T02:14:07.914Z,15.20
2016-09-30T02:15:07.403Z,15.11
2016-09-30T02:16:08.283Z,15.18
2016-09-30T02:17:07.963Z,15.14
2016-09-30T02:18:07.727Z,15.08
2016-09-30T02:19:07.187Z,15.08
2016-09-30T02:20:07.722Z,15.03
2016-09-30T02:21:07.286Z,15.05
2016-09-30T02:22:07.985Z,14.98
2016-09-30T02:23:07.534Z,14.83
2016-09-30T02:24:08.141Z,14.75
2016-09-30T02:25:07.698Z,14.72
2016-09-30T02:26:07.326Z,14.71
2016-09-30T02:27:07.963Z,14.65
2016-09-30T02:28:07.461Z,14.61
2016-09-30T02:29:08.004Z,14.61
2016-09-30T02:30:07.447Z,14.56
2016-09-30T02:31:08.197Z,14.55
2016-09-30T02:32:07.845Z,14.52
2016-09-30T02:33:07.369Z,14.56
2016-09-30T02:34:07.910Z,14.55
2016-09-30T02:35:07.448Z,14.51
2016-09-30T02:36:07.980Z,14.50
2016-09-30T02:37:07.556Z,14.53
2016-09-30T02:38:07.145Z,14.52
2016-09-30T02:39:07.689Z,14.53
2016-09-30T02:40:07.227Z,14.54
2016-09-30T02:41:07.749Z,14.52
2016-09-30T02:42:07.268Z,14.60
2016-09-30T02:43:07.773Z,14.62
2016-09-30T02:44:07.294Z,14.65
2016-09-30T02:45:08.104Z,14.61
2016-09-30T02:46:07.736Z,14.55
2016-09-30T02:47:07.347Z,14.57
2016-09-30T02:48:07.861Z,14.60
2016-09-30T02:49:07.636Z,14.59
2016-09-30T02:50:07.173Z,14.56
2016-09-30T02:51:07.747Z,14.47
2016-09-30T02:52:07.434Z,14.53
2016-09-30T02:53:08.083Z,14.54
2016-09-30T02:54:07.662Z,14.47
2016-09-30T02:55:07.289Z,14.49
2016-09-30T02:56:08.066Z,14.58
2016-09-30T02:57:07.645Z,14.51
2016-09-30T02:58:07.159Z,14.45
2016-09-30T02:59:07.673Z,14.40
2016-09-30T03:00:07.402Z,14.27
2016-09-30T03:01:07.971Z,14.34
2016-09-30T03:02:07.548Z,14.33
2016-09-30T03:03:08.103Z,14.34
2016-09-30T03:04:07.598Z,14.36
2016-09-30T03:05:07.107Z,14.25
2016-09-30T03:06:07.587Z,14.28
2016-09-30T03:07:07.131Z,14.35
2016-09-30T03:08:07.750Z,14.35
2016-09-30T03:09:07.309Z,14.45
2016-09-30T03:10:07.859Z,14.41
2016-09-30T03:11:07.427Z,14.30
2016-09-30T03:12:08.038Z,14.41
2016-09-30T03:13:07.530Z,14.34
2016-09-30T03:14:08.124Z,14.26
2016-09-30T03:15:07.736Z,14.34
2016-09-30T03:16:07.367Z,14.32
2016-09-30T03:17:07.940Z,14.31
2016-09-30T03:18:08.069Z,14.41
2016-09-30T03:19:07.561Z,14.26
2016-09-30T03:20:08.192Z,14.29
2016-09-30T03:21:07.691Z,14.32
2016-09-30T03:22:07.277Z,14.42
2016-09-30T03:23:07.881Z,14.22
2016-09-30T03:24:07.391Z,14.25
2016-09-30T03:25:07.959Z,14.32
2016-09-30T03:26:07.472Z,14.35
2016-09-30T03:27:08.065Z,14.26
2016-09-30T03:28:07.565Z,14.23
2016-09-30T03:29:08.129Z,14.14
2016-09-30T03:30:07.706Z,14.17
2016-09-30T03:31:07.280Z,14.15
2016-09-30T03:32:07.842Z,14.03
2016-09-30T03:33:07.414Z,14.02
2016-09-30T03:34:08.006Z,13.98
2016-09-30T03:35:07.532Z,14.00
2016-09-30T03:36:08.064Z,14.05
2016-09-30T03:37:07.679Z,14.05
2016-09-30T03:38:07.216Z,14.06
2016-09-30T03:39:07.786Z,14.06
2016-09-30T03:40:07.439Z,13.94
2016-09-30T03:41:07.980Z,13.91
2016-09-30T03:42:07.498Z,13.91
2016-09-30T03:43:07.922Z,13.90
2016-09-30T03:44:08.055Z,13.99
2016-09-30T03:45:07.602Z,13.94
2016-09-30T03:46:07.052Z,14.03
2016-09-30T03:47:07.541Z,14.04
2016-09-30T03:48:08.173Z,14.11
2016-09-30T03:49:07.659Z,14.07
2016-09-30T03:50:07.079Z,14.08
2016-09-30T03:51:07.586Z,14.08
2016-09-30T03:52:07.330Z,13.99
2016-09-30T03:53:07.881Z,13.92
2016-09-30T03:54:07.344Z,13.97
2016-09-30T03:55:07.929Z,13.91
2016-09-30T03:56:07.472Z,13.89
2016-09-30T03:57:07.990Z,13.89
2016-09-30T03:58:07.507Z,13.79
2016-09-30T03:59:08.117Z,13.77
2016-09-30T04:00:07.705Z,13.81
2016-09-30T04:01:07.181Z,13.88
2016-09-30T04:02:07.782Z,13.92
2016-09-30T04:03:07.436Z,13.81
2016-09-30T04:04:07.898Z,13.78
2016-09-30T04:05:07.882Z,13.83
2016-09-30T04:06:07.409Z,13.82
2016-09-30T04:07:07.977Z,13.91
2016-09-30T04:08:07.611Z,13.82
2016-09-30T04:09:07.135Z,13.80
2016-09-30T04:10:07.701Z,13.79
2016-09-30T04:11:07.268Z,13.85
2016-09-30T04:12:09.192Z,13.83
2016-09-30T04:13:07.850Z,13.82
2016-09-30T04:14:07.411Z,13.86
2016-09-30T04:15:07.865Z,13.79
2016-09-30T04:16:07.365Z,13.84
2016-09-30T04:17:08.147Z,13.82
2016-09-30T04:18:07.835Z,13.82
2016-09-30T04:19:07.884Z,13.77
2016-09-30T04:20:07.388Z,13.73
2016-09-30T04:21:07.969Z,13.82
2016-09-30T04:22:07.519Z,13.78
2016-09-30T04:23:08.121Z,13.84
2016-09-30T04:24:07.650Z,13.79
2016-09-30T04:25:09.725Z,13.76
2016-09-30T04:26:07.732Z,13.76
2016-09-30T04:27:07.252Z,13.77
2016-09-30T04:28:07.803Z,13.79
2016-09-30T04:29:07.407Z,13.85
2016-09-30T04:30:07.987Z,13.93
2016-09-30T04:31:07.567Z,14.04
2016-09-30T04:32:07.164Z,14.11
2016-09-30T04:33:07.700Z,14.17
2016-09-30T04:34:07.225Z,14.01
2016-09-30T04:35:07.688Z,14.07
2016-09-30T04:36:07.177Z,14.10
2016-09-30T04:37:07.752Z,14.08
2016-09-30T04:38:07.362Z,14.05
2016-09-30T04:39:07.940Z,14.22
2016-09-30T04:40:07.458Z,14.26
2016-09-30T04:41:07.991Z,14.30
2016-09-30T04:42:07.586Z,14.25
2016-09-30T04:43:07.071Z,14.27
2016-09-30T04:44:07.542Z,14.29
2016-09-30T04:45:08.130Z,14.26
2016-09-30T04:46:07.720Z,14.28
2016-09-30T04:47:07.289Z,14.21
2016-09-30T04:48:07.864Z,14.23
2016-09-30T04:49:07.428Z,14.26
2016-09-30T04:50:07.950Z,14.23
2016-09-30T04:51:07.528Z,14.23
2016-09-30T04:52:08.191Z,14.22
2016-09-30T04:53:07.687Z,14.20
2016-09-30T04:54:07.274Z,14.16
2016-09-30T04:55:07.872Z,14.23
2016-09-30T04:56:07.335Z,14.23
2016-09-30T04:57:07.903Z,14.10
2016-09-30T04:58:07.415Z,14.13
2016-09-30T04:59:07.490Z,14.05
2016-09-30T05:00:08.067Z,14.06
2016-09-30T05:01:07.652Z,14.06
2016-09-30T05:02:08.009Z,14.02
2016-09-30T05:03:07.577Z,14.05
2016-09-30T05:04:07.074Z,13.96
2016-09-30T05:05:07.503Z,13.90
2016-09-30T05:06:07.707Z,14.01
2016-09-30T05:07:07.270Z,14.07
2016-09-30T05:08:07.876Z,14.03
2016-09-30T05:09:07.457Z,13.99
2016-09-30T05:10:08.061Z,13.99
2016-09-30T05:11:07.623Z,14.00
2016-09-30T05:12:07.182Z,14.05
2016-09-30T05:13:07.714Z,14.06
2016-09-30T05:14:07.175Z,13.93
2016-09-30T05:15:07.644Z,13.90
2016-09-30T05:16:07.174Z,13.86
2016-09-30T05:17:07.827Z,13.77
2016-09-30T05:18:07.452Z,13.74
2016-09-30T05:19:08.059Z,13.73
2016-09-30T05:20:07.564Z,13.78
2016-09-30T05:21:08.118Z,13.71
2016-09-30T05:22:07.707Z,13.65
2016-09-30T05:23:07.246Z,13.61
2016-09-30T05:24:07.893Z,13.59
2016-09-30T05:25:07.436Z,13.70
2016-09-30T05:26:08.071Z,13.72
2016-09-30T05:27:07.553Z,13.81
2016-09-30T05:28:08.129Z,13.96
2016-09-30T05:29:07.766Z,13.86
2016-09-30T05:30:07.319Z,13.80
2016-09-30T05:31:07.869Z,13.79
2016-09-30T05:32:07.442Z,13.81
2016-09-30T05:33:07.951Z,13.79
2016-09-30T05:34:07.417Z,13.82
2016-09-30T05:35:07.971Z,13.93
2016-09-30T05:36:07.543Z,13.95
2016-09-30T05:37:08.018Z,13.83
2016-09-30T05:38:07.512Z,13.86
2016-09-30T05:39:08.130Z,13.90
2016-09-30T05:40:07.645Z,13.87
2016-09-30T05:41:07.141Z,13.85
2016-09-30T05:42:07.625Z,13.83
2016-09-30T05:43:07.164Z,13.99
2016-09-30T05:44:07.645Z,13.96
2016-09-30T05:45:07.183Z,13.89
2016-09-30T05:46:07.681Z,13.82
2016-09-30T05:47:07.138Z,13.88
2016-09-30T05:48:07.757Z,13.99
2016-09-30T05:49:07.294Z,13.99
2016-09-30T05:50:07.788Z,14.05
2016-09-30T05:51:07.462Z,13.97
2016-09-30T05:52:08.049Z,13.97
2016-09-30T05:53:07.579Z,13.96
2016-09-30T05:54:08.041Z,14.01
2016-09-30T05:55:07.486Z,14.00
2016-09-30T05:56:08.004Z,13.98
2016-09-30T05:57:07.570Z,13.95
2016-09-30T05:58:08.133Z,13.90
2016-09-30T05:59:07.815Z,13.89
2016-09-30T06:00:07.422Z,13.93
2016-09-30T06:01:07.925Z,13.97
2016-09-30T06:02:07.392Z,14.04
2016-09-30T06:03:07.982Z,14.02
2016-09-30T06:04:07.481Z,13.93
2016-09-30T06:05:08.112Z,14.00
2016-09-30T06:06:07.602Z,14.12
2016-09-30T06:07:07.165Z,14.11
2016-09-30T06:08:07.638Z,14.12
2016-09-30T06:09:07.113Z,14.23
2016-09-30T06:10:07.698Z,14.24
2016-09-30T06:11:07.240Z,14.26
2016-09-30T06:12:07.755Z,14.26
2016-09-30T06:13:07.287Z,14.22
2016-09-30T06:14:07.820Z,14.25
2016-09-30T06:15:07.388Z,14.20
2016-09-30T06:16:07.970Z,14.25
2016-09-30T06:17:07.658Z,14.29
2016-09-30T06:18:07.187Z,14.33
2016-09-30T06:19:07.772Z,14.27
2016-09-30T06:20:07.230Z,14.41
2016-09-30T06:21:07.740Z,14.48
2016-09-30T06:22:07.225Z,14.52
2016-09-30T06:23:07.744Z,14.56
2016-09-30T06:24:07.248Z,14.61
2016-09-30T06:25:07.721Z,14.66
2016-09-30T06:26:07.191Z,14.73
2016-09-30T06:27:07.701Z,14.79
2016-09-30T06:28:07.238Z,14.71
2016-09-30T06:29:07.839Z,14.77
2016-09-30T06:30:07.367Z,14.84
2016-09-30T06:31:07.931Z,14.92
2016-09-30T06:32:07.464Z,14.92
2016-09-30T06:33:08.156Z,14.84
2016-09-30T06:34:07.674Z,14.90
2016-09-30T06:35:07.176Z,14.94
2016-09-30T06:36:07.756Z,14.95
2016-09-30T06:37:07.296Z,15.06
2016-09-30T06:38:07.866Z,15.03
2016-09-30T06:39:07.351Z,15.06
2016-09-30T06:40:07.893Z,15.07
2016-09-30T06:41:07.341Z,15.09
2016-09-30T06:42:07.847Z,15.10
2016-09-30T06:43:07.387Z,15.19
2016-09-30T06:44:07.841Z,15.17
2016-09-30T06:45:07.345Z,15.14
2016-09-30T06:46:08.015Z,15.19
2016-09-30T06:47:07.613Z,15.26
2016-09-30T06:48:07.118Z,15.32
2016-09-30T06:49:07.725Z,15.39
2016-09-30T06:50:07.282Z,15.41
2016-09-30T06:51:07.862Z,15.52
2016-09-30T06:52:07.514Z,15.52
2016-09-30T06:53:08.115Z,15.53
2016-09-30T06:54:07.673Z,15.53
2016-09-30T06:55:07.161Z,15.59
2016-09-30T06:56:07.694Z,15.56
2016-09-30T06:57:07.120Z,15.54
2016-09-30T06:58:07.627Z,15.57
2016-09-30T06:59:07.123Z,15.64
2016-09-30T07:00:07.691Z,15.68
2016-09-30T07:01:07.291Z,15.77
2016-09-30T07:02:07.792Z,15.83
2016-09-30T07:03:07.309Z,15.76
2016-09-30T07:04:07.871Z,15.79
2016-09-30T07:05:07.513Z,15.86
2016-09-30T07:06:08.131Z,15.92
2016-09-30T07:07:07.604Z,16.14
2016-09-30T07:08:07.094Z,16.31
2016-09-30T07:09:07.725Z,16.22
2016-09-30T07:10:07.251Z,16.16
2016-09-30T07:11:07.704Z,16.19
2016-09-30T07:12:08.011Z,16.23
2016-09-30T07:13:07.539Z,16.20
2016-09-30T07:14:08.077Z,16.23
2016-09-30T07:15:07.614Z,16.26
2016-09-30T07:16:07.126Z,16.27
2016-09-30T07:17:07.820Z,16.34
2016-09-30T07:18:07.441Z,16.36
2016-09-30T07:19:08.069Z,16.40
2016-09-30T07:20:07.660Z,16.47
2016-09-30T07:21:07.128Z,16.46
2016-09-30T07:22:07.689Z,16.41
2016-09-30T07:23:07.308Z,16.42
2016-09-30T07:24:07.933Z,16.50
2016-09-30T07:25:07.538Z,16.51
2016-09-30T07:26:08.153Z,16.62
2016-09-30T07:27:07.744Z,16.68
2016-09-30T07:28:07.353Z,16.75
2016-09-30T07:29:07.930Z,16.81
2016-09-30T07:30:07.443Z,16.81
2016-09-30T07:31:08.030Z,16.85
2016-09-30T07:32:07.658Z,16.83
2016-09-30T07:33:07.204Z,16.82
2016-09-30T07:34:07.783Z,16.81
2016-09-30T07:35:07.300Z,16.90
2016-09-30T07:36:07.746Z,16.99
2016-09-30T07:37:07.276Z,16.94
2016-09-30T07:38:08.440Z,16.96
2016-09-30T07:39:07.972Z,16.99
2016-09-30T07:40:07.553Z,17.05
2016-09-30T07:41:08.098Z,17.04
2016-09-30T07:42:07.702Z,17.14
2016-09-30T07:43:07.257Z,17.17
2016-09-30T07:44:07.802Z,17.15
2016-09-30T07:45:07.374Z,17.17
2016-09-30T07:46:07.973Z,17.17
2016-09-30T07:47:07.597Z,17.23
2016-09-30T07:48:07.082Z,17.30
2016-09-30T07:49:07.578Z,17.41
2016-09-30T07:50:07.093Z,17.47
2016-09-30T07:51:07.591Z,17.48
2016-09-30T07:52:07.182Z,17.54
2016-09-30T07:53:07.753Z,17.57
2016-09-30T07:54:07.231Z,17.54
2016-09-30T07:55:07.793Z,17.56
2016-09-30T07:56:07.246Z,17.61
2016-09-30T07:57:07.783Z,17.71
2016-09-30T07:58:07.295Z,17.79
2016-09-30T07:59:07.774Z,17.81
2016-09-30T08:00:07.304Z,17.84
2016-09-30T08:01:07.887Z,17.84
2016-09-30T08:02:07.402Z,17.94
2016-09-30T08:03:07.944Z,17.98
2016-09-30T08:04:07.532Z,18.04
2016-09-30T08:05:08.101Z,18.07
2016-09-30T08:06:07.655Z,18.10
2016-09-30T08:07:07.106Z,18.07
2016-09-30T08:08:07.602Z,18.11
2016-09-30T08:09:07.075Z,18.13
2016-09-30T08:10:07.629Z,18.13
2016-09-30T08:11:07.156Z,18.16
2016-09-30T08:12:07.753Z,18.21
2016-09-30T08:13:07.214Z,18.20
2016-09-30T08:14:07.801Z,18.24
2016-09-30T08:15:07.331Z,18.26
2016-09-30T08:16:07.893Z,18.40
2016-09-30T08:17:07.654Z,18.42
2016-09-30T08:18:07.172Z,18.43
2016-09-30T08:19:07.755Z,18.44
2016-09-30T08:20:07.355Z,18.53
2016-09-30T08:21:07.918Z,18.52
2016-09-30T08:22:07.403Z,18.62
2016-09-30T08:23:07.912Z,18.67
2016-09-30T08:24:07.474Z,18.68
2016-09-30T08:25:08.028Z,18.63
2016-09-30T08:26:07.535Z,18.70
2016-09-30T08:27:08.055Z,18.71
2016-09-30T08:28:07.544Z,18.68
2016-09-30T08:29:08.092Z,18.70
2016-09-30T08:30:07.589Z,18.73
2016-09-30T08:31:07.082Z,18.65
2016-09-30T08:32:07.734Z,18.71
2016-09-30T08:33:07.314Z,18.81
2016-09-30T08:34:07.810Z,18.89
2016-09-30T08:35:07.336Z,18.90
2016-09-30T08:36:07.828Z,18.85
2016-09-30T08:37:07.445Z,18.90
2016-09-30T08:38:07.976Z,18.99
2016-09-30T08:39:07.446Z,19.02
2016-09-30T08:40:07.957Z,18.98
2016-09-30T08:41:07.424Z,19.15
2016-09-30T08:42:07.904Z,19.12
2016-09-30T08:43:07.412Z,19.17
2016-09-30T08:44:07.963Z,19.26
2016-09-30T08:45:07.512Z,19.15
2016-09-30T08:46:07.997Z,19.15
2016-09-30T08:47:07.535Z,19.12
2016-09-30T08:48:08.120Z,19.18
2016-09-30T08:49:07.654Z,19.16
2016-09-30T08:50:07.069Z,19.34
2016-09-30T08:51:07.683Z,19.40
2016-09-30T08:52:07.223Z,19.35
2016-09-30T08:53:07.685Z,19.33
2016-09-30T08:54:07.287Z,19.40
2016-09-30T08:55:07.866Z,19.43
2016-09-30T08:56:07.523Z,19.43
2016-09-30T08:57:08.167Z,19.54
2016-09-30T08:58:07.694Z,19.58
2016-09-30T08:59:07.187Z,19.78
2016-09-30T09:00:07.777Z,19.75
2016-09-30T09:01:07.242Z,19.69
2016-09-30T09:02:07.777Z,19.71
2016-09-30T09:03:07.342Z,19.67
2016-09-30T09:04:07.954Z,19.69
2016-09-30T09:05:07.502Z,19.67
2016-09-30T09:06:08.056Z,19.74
2016-09-30T09:07:07.577Z,19.81
2016-09-30T09:08:07.131Z,19.76
2016-09-30T09:09:07.610Z,19.72
2016-09-30T09:10:07.171Z,19.64
2016-09-30T09:11:07.699Z,19.70
2016-09-30T09:12:07.259Z,19.85
2016-09-30T09:13:07.782Z,19.80
2016-09-30T09:14:07.324Z,19.91
2016-09-30T09:15:07.952Z,19.93
2016-09-30T09:16:07.527Z,19.92
2016-09-30T09:17:08.149Z,20.01
2016-09-30T09:18:07.678Z,20.06
2016-09-30T09:19:07.242Z,20.14
2016-09-30T09:20:07.770Z,20.17
2016-09-30T09:21:07.314Z,20.12
2016-09-30T09:22:07.914Z,20.13
2016-09-30T09:23:07.450Z,20.14
2016-09-30T09:24:08.005Z,20.05
2016-09-30T09:25:07.615Z,20.15
2016-09-30T09:26:07.110Z,20.19
2016-09-30T09:27:07.656Z,20.28
2016-09-30T09:28:07.157Z,20.24
2016-09-30T09:29:07.589Z,20.37
2016-09-30T09:30:07.194Z,20.28
2016-09-30T09:31:07.754Z,20.26
2016-09-30T09:32:07.311Z,20.33
2016-09-30T09:33:07.807Z,20.31
2016-09-30T09:34:07.333Z,20.30
2016-09-30T09:35:07.896Z,20.29
2016-09-30T09:36:07.417Z,20.33
2016-09-30T09:37:07.835Z,20.29
2016-09-30T09:38:08.027Z,20.33
2016-09-30T09:39:07.565Z,20.34
2016-09-30T09:40:08.133Z,20.60
2016-09-30T09:41:07.686Z,20.41
2016-09-30T09:42:07.161Z,20.40
2016-09-30T09:43:07.741Z,20.58
2016-09-30T09:44:07.294Z,20.61
2016-09-30T09:45:07.818Z,20.51
2016-09-30T09:46:07.278Z,20.54
2016-09-30T09:47:08.066Z,20.50
2016-09-30T09:48:07.574Z,20.50
2016-09-30T09:49:08.228Z,20.58
2016-09-30T09:50:07.744Z,20.60
2016-09-30T09:51:07.225Z,20.57
2016-09-30T09:52:07.901Z,20.57
2016-09-30T09:53:08.086Z,20.60
2016-09-30T09:54:07.680Z,20.58
2016-09-30T09:55:07.248Z,20.54
2016-09-30T09:56:07.803Z,20.62
2016-09-30T09:57:07.316Z,20.68
2016-09-30T09:58:07.893Z,20.57
2016-09-30T09:59:07.424Z,20.67
2016-09-30T10:00:08.064Z,20.66
2016-09-30T10:01:07.552Z,20.69
2016-09-30T10:02:08.189Z,20.65
2016-09-30T10:03:07.755Z,20.72
2016-09-30T10:04:07.311Z,20.75
2016-09-30T10:05:07.784Z,20.82
2016-09-30T10:06:07.325Z,21.03
2016-09-30T10:07:07.889Z,20.93
2016-09-30T10:08:07.493Z,20.84
2016-09-30T10:09:07.972Z,20.83
2016-09-30T10:10:07.485Z,20.77
2016-09-30T10:11:07.997Z,20.82
2016-09-30T10:12:07.537Z,20.89
2016-09-30T10:13:08.143Z,20.95
2016-09-30T10:14:07.703Z,20.88
2016-09-30T10:15:07.285Z,20.90
2016-09-30T10:16:07.861Z,20.93
2016-09-30T10:17:07.464Z,21.08
2016-09-30T10:18:08.103Z,20.97
2016-09-30T10:19:07.685Z,20.96
2016-09-30T10:20:07.226Z,21.07
2016-09-30T10:21:07.723Z,21.05
2016-09-30T10:22:07.202Z,21.21
2016-09-30T10:23:07.846Z,21.24
2016-09-30T10:24:07.481Z,21.30
2016-09-30T10:25:08.071Z,21.22
2016-09-30T10:26:07.583Z,21.21
2016-09-30T10:27:08.134Z,21.20
2016-09-30T10:28:07.651Z,21.23
2016-09-30T10:29:07.078Z,21.25
2016-09-30T10:30:07.564Z,21.35
2016-09-30T10:31:08.138Z,21.36
2016-09-30T10:32:07.743Z,21.26
2016-09-30T10:33:07.315Z,21.17
2016-09-30T10:34:07.823Z,21.23
2016-09-30T10:35:07.373Z,21.22
2016-09-30T10:36:07.967Z,21.32
2016-09-30T10:37:07.483Z,21.33
2016-09-30T10:38:07.946Z,21.25
2016-09-30T10:39:07.499Z,21.15
2016-09-30T10:40:08.082Z,21.27
2016-09-30T10:41:07.585Z,21.35
2016-09-30T10:42:07.236Z,21.40
2016-09-30T10:43:07.831Z,21.55
2016-09-30T10:44:07.438Z,21.47
2016-09-30T10:45:07.966Z,21.40
2016-09-30T10:46:07.497Z,21.53
2016-09-30T10:47:08.062Z,21.45
2016-09-30T10:48:07.638Z,21.46
2016-09-30T10:49:07.249Z,21.53
2016-09-30T10:50:07.873Z,21.47
2016-09-30T10:51:07.344Z,21.59
2016-09-30T10:52:07.926Z,21.56
2016-09-30T10:53:07.510Z,21.63
2016-09-30T10:54:08.165Z,21.55
2016-09-30T10:55:07.688Z,21.52
2016-09-30T10:56:07.187Z,21.68
2016-09-30T10:57:07.667Z,21.76
2016-09-30T10:58:07.099Z,21.72
2016-09-30T10:59:07.586Z,21.68
2016-09-30T11:00:07.159Z,21.77
2016-09-30T11:01:07.723Z,21.78
2016-09-30T11:02:07.204Z,21.66
2016-09-30T11:03:07.702Z,21.62
2016-09-30T11:04:07.215Z,21.67
2016-09-30T11:05:08.117Z,21.62
2016-09-30T11:06:07.801Z,21.79
2016-09-30T11:07:07.332Z,21.72
2016-09-30T11:08:08.189Z,21.64
2016-09-30T11:09:07.853Z,21.63
2016-09-30T11:10:07.483Z,21.67
2016-09-30T11:11:08.112Z,21.74
2016-09-30T11:12:07.819Z,21.67
2016-09-30T11:13:07.552Z,21.73
2016-09-30T11:14:08.218Z,21.63
2016-09-30T11:15:07.824Z,21.69
2016-09-30T11:16:07.666Z,21.72
2016-09-30T11:17:07.357Z,21.72
2016-09-30T11:18:07.430Z,21.77
2016-09-30T11:19:08.208Z,21.75
2016-09-30T11:20:07.783Z,21.83
2016-09-30T11:21:07.639Z,21.76
2016-09-30T11:22:07.226Z,21.76
2016-09-30T11:23:07.930Z,21.87
2016-09-30T11:24:07.607Z,21.88
2016-09-30T11:25:07.277Z,21.82
2016-09-30T11:26:07.966Z,21.85
2016-09-30T11:27:07.575Z,21.84
2016-09-30T11:28:07.277Z,21.92
2016-09-30T11:29:07.952Z,22.04
2016-09-30T11:30:07.712Z,21.95
2016-09-30T11:31:07.449Z,21.85
2016-09-30T11:32:08.376Z,22.09
2016-09-30T11:33:08.119Z,22.30
2016-09-30T11:34:07.706Z,22.22
2016-09-30T11:35:07.358Z,22.15
2016-09-30T11:36:08.112Z,22.03
2016-09-30T11:37:07.961Z,21.99
2016-09-30T11:38:07.711Z,22.10
2016-09-30T11:39:07.392Z,22.15
2016-09-30T11:40:08.083Z,22.11
2016-09-30T11:41:08.014Z,22.09
2016-09-30T11:42:07.764Z,22.11
2016-09-30T11:43:07.379Z,22.06
2016-09-30T11:44:08.158Z,22.09
2016-09-30T11:45:07.861Z,22.08
2016-09-30T11:46:07.437Z,22.07
2016-09-30T11:47:08.205Z,22.11
2016-09-30T11:48:07.924Z,22.27
2016-09-30T11:49:07.528Z,22.31
2016-09-30T11:50:08.333Z,22.23
2016-09-30T11:51:07.995Z,22.27
2016-09-30T11:52:07.791Z,22.26
2016-09-30T11:53:07.371Z,22.30
2016-09-30T11:54:08.035Z,22.39
2016-09-30T11:55:07.717Z,22.30
2016-09-30T11:56:07.334Z,22.29
2016-09-30T11:57:08.085Z,22.21
2016-09-30T11:58:07.667Z,22.36
2016-09-30T11:59:07.288Z,22.29
2016-09-30T12:00:07.946Z,22.41
2016-09-30T12:01:07.655Z,22.46
2016-09-30T12:02:07.255Z,22.41
2016-09-30T12:03:07.866Z,22.37
2016-09-30T12:04:07.528Z,22.28
2016-09-30T12:05:08.468Z,22.30
2016-09-30T12:06:08.125Z,22.23
2016-09-30T12:07:07.877Z,22.17
2016-09-30T12:08:07.492Z,22.32
2016-09-30T12:09:07.343Z,22.43
2016-09-30T12:10:07.951Z,22.34
2016-09-30T12:11:07.574Z,22.24
2016-09-30T12:12:07.169Z,22.24
2016-09-30T12:13:07.910Z,22.41
2016-09-30T12:14:07.757Z,22.31
2016-09-30T12:15:07.465Z,22.33
2016-09-30T12:16:07.894Z,22.34
2016-09-30T12:17:08.383Z,22.31
2016-09-30T12:18:08.103Z,22.37
2016-09-30T12:19:07.834Z,22.40
2016-09-30T12:20:07.609Z,22.45
2016-09-30T12:21:07.302Z,22.37
2016-09-30T12:22:08.083Z,22.36
2016-09-30T12:23:07.913Z,22.45
2016-09-30T12:24:07.490Z,22.46
2016-09-30T12:25:08.228Z,22.52
2016-09-30T12:26:07.964Z,22.42
2016-09-30T12:27:07.536Z,22.28
2016-09-30T12:28:08.329Z,22.39
2016-09-30T12:29:07.995Z,22.44
2016-09-30T12:30:07.673Z,22.51
2016-09-30T12:31:07.242Z,22.53
2016-09-30T12:32:08.040Z,22.56
2016-09-30T12:33:07.613Z,22.54
2016-09-30T12:34:07.242Z,22.46
2016-09-30T12:35:07.906Z,22.51
2016-09-30T12:36:07.802Z,22.51
2016-09-30T12:37:07.390Z,22.57
2016-09-30T12:38:08.050Z,22.60
2016-09-30T12:39:07.715Z,22.68
2016-09-30T12:40:07.315Z,22.64
2016-09-30T12:41:07.935Z,22.54
2016-09-30T12:42:07.606Z,22.50
2016-09-30T12:43:07.302Z,22.52
2016-09-30T12:44:08.056Z,22.70
2016-09-30T12:45:07.732Z,22.66
2016-09-30T12:46:07.334Z,22.74
2016-09-30T12:47:08.105Z,22.73
2016-09-30T12:48:07.688Z,22.65
2016-09-30T12:49:07.361Z,22.60
2016-09-30T12:50:08.058Z,22.59
2016-09-30T12:51:07.732Z,22.86
2016-09-30T12:52:07.398Z,22.86